Airport ID:KMHV
Update Time (UTC):20/06/2019 14:16
Wind Speed (Knots):16
Wind Direction (Magnetic):270
Temperature (°C):26
Dew Point (°C):10
Humidity (%):37
Altimeter (inHg):29.86
Density Altitude (Feet):4900
Visibility (Miles):10+
Clouds (Hundreds of feet):CLR
Present Weather:
METAR:METAR KMHV 201400Z AUTO 30010G21KT 10SM CLR 26/10 A2987 RMK A01

The data displayed is for advisory purposes only and is not to be used for flight planning or operations.

This page is not automatically refreshed. Reload the page to see current data.